01:19 Rennrad Moetz - Oetztal Bhf - Apfelstrasse - Telfs - Moetz
Ort Moetz Datum 01.06.2015 12:28:42
Kategorie Rennrad
Distanz 41,94 Kilometer Steigung 118,0 Meter Gefälle -111,0 Meter
Gesamt Zeit 01:19:45 Aktiv 01:18:36 Pause 00:01:09
Durchs. Tempo 32,0 km/h Tempo max. 40,1 km/h Tempo min. 21,1 km/h
Kalorien 0 Durchs. HF 128 BPM HF max. 145 BPM
Wetter 26 °C PartClouds Min/Max: 24,8 °C/27,5 °C; Druck: 1014,7 mbar; Rel. Feuchte: 38,4%; Taupunkt: 10,8 °C; Niederschlag: 0,0mm
Ausrüstung Bontrager - RXL Road
Continental - Grand Prix 4000 S
Poison - Rennrad
Shimano - HG CN-7901 Dura Ace
Notiz Moetz - Oetztal Bhf - Apfelstrasse - Telfs - Moetz ... super Wetter, etwas windig, locker bis flott (2,4) ... garmin connect
Splits
Distanz (km) Gesamt Zeit Split Zeit Split Tempo Split Tempo Höhenprofil (m)
1,00 00:02:13 00:02:13 00:02:13 27,0 -9,91
2,00 00:04:23 00:02:09 00:02:10 27,7 1,95
3,00 00:06:25 00:02:02 00:02:03 29,3 7,91
4,00 00:08:27 00:02:01 00:02:01 29,6 9,32
5,00 00:10:35 00:02:08 00:02:08 28,1 5,54
6,00 00:12:30 00:01:54 00:01:55 31,4 5,87
7,00 00:14:23 00:01:53 00:01:53 31,7 1,21
8,00 00:16:15 00:01:52 00:01:52 32,0 7,16
9,00 00:18:08 00:01:52 00:01:53 31,9 3,26
10,00 00:20:05 00:01:56 00:01:57 30,8 9,40
11,00 00:21:57 00:01:51 00:01:51 32,3 -9,25
12,00 00:23:47 00:01:50 00:01:50 32,7 -2,93
13,00 00:25:40 00:01:52 00:01:53 31,9 -10,07
14,00 00:27:26 00:01:45 00:01:46 34,0 -6,31
15,00 00:29:26 00:02:00 00:02:00 29,9 -2,96
16,00 00:31:20 00:01:54 00:01:54 31,5 -3,39
17,00 00:33:12 00:01:51 00:01:52 32,2 1,76
18,00 00:35:04 00:01:52 00:01:52 32,0 -6,53
19,00 00:36:54 00:01:49 00:01:49 32,9 -6,37
20,00 00:38:45 00:01:51 00:01:51 32,4 1,87
21,00 00:40:37 00:01:52 00:01:52 32,0 -6,51
22,00 00:42:26 00:01:48 00:01:48 33,3 -0,64
23,00 00:44:14 00:01:48 00:01:48 33,3 -0,12
24,00 00:45:59 00:01:45 00:01:45 34,1 -3,60
25,00 00:47:47 00:01:47 00:01:48 33,5 -1,88
26,00 00:49:34 00:01:47 00:01:47 33,6 2,61
27,00 00:51:24 00:01:50 00:01:50 32,6 -2,13
28,00 00:53:03 00:01:39 00:01:39 36,4 -5,41
29,00 00:54:42 00:01:38 00:01:39 36,5 -3,66
30,00 00:56:32 00:01:50 00:01:50 32,6 -2,10
31,00 00:58:27 00:01:55 00:01:55 31,3 -1,71
32,00 01:00:22 00:01:54 00:01:54 31,5 2,02
33,00 01:02:17 00:01:55 00:01:55 31,2 0,16
34,00 01:04:04 00:01:47 00:01:47 33,6 2,69
35,00 01:05:50 00:01:45 00:01:46 34,0 7,46
36,00 01:07:36 00:01:46 00:01:46 33,9 0,91
37,00 01:09:18 00:01:41 00:01:42 35,4 0,80
38,00 01:11:07 00:01:49 00:01:49 33,0 -0,76
39,00 01:12:57 00:01:49 00:01:50 32,8 3,87
40,00 01:14:42 00:01:45 00:01:45 34,3 0,72
41,00 01:16:27 00:01:45 00:01:45 34,3 -0,28
42,00 01:18:26 00:01:59 00:01:59 30,2 9,79
42,04 01:18:35 00:00:08 00:03:11 18,8 0,23